Time;durP1;ratioP1;P1;durP2;ratioP2;P2;SDS_P1;SDS_P2;PMS_P1;PMS_P2;Temp;Humidity;BMP_temperature;BMP_pressure;BME280_temperature;BME280_humidity;BME280_pressure;Samples;Min_cycle;Max_cycle;Signal;HPM_P1;HPM_P2
2022/05/11 00:01:27;;;;;;;;;;;;;;;10.60;74.54;95535.56;4974997;28;1902;-51
2022/05/11 00:03:53;;;;;;;;;;;;;;;10.32;75.91;95530.28;4974947;28;973;-51
2022/05/11 00:06:19;;;;;;;;;;;;;;;10.47;75.53;95529.75;4974883;28;989;-51
2022/05/11 00:08:45;;;;;;;;;;;;;;;10.51;75.86;95525.81;4975080;28;966;-51
2022/05/11 00:11:11;;;;;;;;;;;;;;;10.26;76.58;95530.84;4975149;28;938;-51
2022/05/11 00:13:37;;;;;;;;;;;;;;;10.05;77.57;95536.44;4973348;28;1030;-51
2022/05/11 00:16:04;;;;;;;;;;;;;;;10.25;76.78;95534.50;4975160;28;1004;-51
2022/05/11 00:18:30;;;;;;;;;;;;;;;10.42;76.58;95537.41;4974630;28;1052;-51
2022/05/11 00:20:56;;;;;;;;;;;;;;;10.37;76.72;95539.69;4974656;28;1902;-51
2022/05/11 00:23:22;;;;;;;;;;;;;;;10.40;76.66;95536.72;4973542;28;975;-50
2022/05/11 00:25:48;;;;;;;;;;;;;;;10.54;76.11;95536.19;4974824;28;1147;-52
2022/05/11 00:28:14;;;;;;;;;;;;;;;10.54;75.66;95536.19;4974389;28;1013;-51
2022/05/11 00:30:40;;;;;;;;;;;;;;;10.41;75.50;95533.88;4973705;28;1042;-50
2022/05/11 00:33:07;;;;;;;;;;;;;;;10.03;76.12;95542.91;4974635;28;1042;-52
2022/05/11 00:35:33;;;;;;;;;;;;;;;10.12;76.20;95534.84;4974881;28;1080;-52
2022/05/11 00:38:00;;;;;;;;;;;;;;;10.34;76.08;95540.81;4974417;28;1171;-52
2022/05/11 00:40:27;;;;;;;;;;;;;;;10.06;77.20;95537.28;4974257;28;1108;-51
2022/05/11 00:42:53;;;;;;;;;;;;;;;10.00;76.77;95538.72;4974566;28;1911;-51
2022/05/11 00:45:19;;;;;;;;;;;;;;;10.09;76.83;95532.50;4974236;28;1860;-51
2022/05/11 00:47:45;;;;;;;;;;;;;;;10.02;77.44;95531.41;4974214;28;1856;-51
2022/05/11 00:50:11;;;;;;;;;;;;;;;10.11;77.18;95524.31;4974656;28;1008;-52
2022/05/11 00:52:47;;;;;;;;;;;;;;;10.24;76.78;95524.78;4974236;28;1029;-52
2022/05/11 00:55:19;;;;;;;;;;;;;;;10.24;76.00;95522.13;4974462;28;1048;-51
2022/05/11 00:58:03;;;;;;;;;;;;;;;10.25;76.19;95523.81;4974365;28;1073;-51
2022/05/11 01:00:30;;;;;;;;;;;;;;;9.77;76.21;95514.25;4974027;28;958;-51
2022/05/11 01:03:03;;;;;;;;;;;;;;;9.75;76.82;95530.41;4974460;28;1907;-51
2022/05/11 01:05:29;;;;;;;;;;;;;;;9.58;78.28;95534.69;4974357;28;963;-50
2022/05/11 01:07:56;;;;;;;;;;;;;;;9.73;78.23;95532.38;4974504;28;1012;-49
2022/05/11 01:10:23;;;;;;;;;;;;;;;9.86;77.54;95525.84;4973964;28;904;-50
2022/05/11 01:12:51;;;;;;;;;;;;;;;10.00;77.13;95528.03;4974081;28;1037;-49
2022/05/11 01:15:19;;;;;;;;;;;;;;;10.00;77.21;95538.72;4974165;28;1069;-49
2022/05/11 01:17:45;;;;;;;;;;;;;;;10.03;77.39;95535.75;4974281;28;1032;-49
2022/05/11 01:20:16;;;;;;;;;;;;;;;10.05;76.77;95538.28;4973987;28;1080;-50
2022/05/11 01:23:00;;;;;;;;;;;;;;;10.11;76.48;95532.31;4974025;28;2025;-50
2022/05/11 01:25:27;;;;;;;;;;;;;;;10.06;75.91;95537.28;4974053;28;1276;-50
2022/05/11 01:28:00;;;;;;;;;;;;;;;9.89;75.80;95536.25;4973923;28;1857;-49
2022/05/11 01:30:26;;;;;;;;;;;;;;;9.91;77.10;95537.78;4974205;28;1054;-49
2022/05/11 01:32:53;;;;;;;;;;;;;;;9.77;75.12;95532.94;4977542;28;1092;-50
2022/05/11 01:35:37;;;;;;;;;;;;;;;9.66;76.12;95530.44;4977838;28;1064;-50
2022/05/11 01:38:09;;;;;;;;;;;;;;;9.43;77.21;95532.59;4977735;28;998;-50
2022/05/11 01:40:35;;;;;;;;;;;;;;;9.53;77.86;95534.25;4977676;28;966;-50
2022/05/11 01:43:01;;;;;;;;;;;;;;;9.61;77.41;95538.03;4977803;28;2021;-50
2022/05/11 01:45:27;;;;;;;;;;;;;;;9.66;77.71;95541.13;4977657;28;962;-50
2022/05/11 01:47:54;;;;;;;;;;;;;;;9.68;78.32;95544.47;4977589;28;1054;-50
2022/05/11 01:50:21;;;;;;;;;;;;;;;9.93;76.99;95533.13;4977514;28;1053;-50
2022/05/11 01:52:47;;;;;;;;;;;;;;;9.86;77.06;95531.19;4977474;28;1066;-50
2022/05/11 01:55:13;;;;;;;;;;;;;;;9.71;76.41;95544.19;4977174;28;1093;-48
2022/05/11 01:57:39;;;;;;;;;;;;;;;9.54;75.82;95537.75;4977194;28;1080;-49
2022/05/11 02:00:06;;;;;;;;;;;;;;;9.41;76.88;95539.91;4977353;28;1034;-49
2022/05/11 02:02:32;;;;;;;;;;;;;;;9.49;76.20;95540.06;4976088;28;1915;-49
2022/05/11 02:07:51;;;;;;;;;;;;;;;9.29;76.70;95544.56;4977383;28;1026;-49
2022/05/11 02:10:22;;;;;;;;;;;;;;;9.41;76.44;95542.56;4975768;28;1946;-49
2022/05/11 02:12:48;;;;;;;;;;;;;;;9.25;76.42;95546.69;4976997;28;1120;-49
2022/05/11 02:15:16;;;;;;;;;;;;;;;9.17;76.70;95550.06;4976858;28;1084;-49
2022/05/11 02:17:43;;;;;;;;;;;;;;;9.11;76.56;95544.47;4976864;28;1037;-49
2022/05/11 02:20:09;;;;;;;;;;;;;;;9.04;76.46;95551.34;4976754;28;1091;-49
2022/05/11 02:22:36;;;;;;;;;;;;;;;8.96;76.82;95552.06;4977005;28;1991;-49
2022/05/11 02:25:02;;;;;;;;;;;;;;;9.11;76.36;95547.97;4977020;28;977;-49
2022/05/11 02:27:30;;;;;;;;;;;;;;;9.26;76.21;95542.19;4976699;28;1155;-49
2022/05/11 02:29:56;;;;;;;;;;;;;;;9.35;76.66;95538.66;4976791;28;1053;-49
2022/05/11 02:32:22;;;;;;;;;;;;;;;9.17;76.58;95550.06;4976537;28;1004;-49
2022/05/11 02:37:33;;;;;;;;;;;;;;;9.21;75.68;95537.28;4976410;28;1121;-49
2022/05/11 02:39:59;;;;;;;;;;;;;;;9.26;76.33;95534.19;4976904;28;1041;-49
2022/05/11 02:42:25;;;;;;;;;;;;;;;9.26;77.18;95542.19;4975339;28;1902;-49
2022/05/11 02:44:52;;;;;;;;;;;;;;;8.94;77.25;95536.22;4976597;28;1046;-49
2022/05/11 02:47:18;;;;;;;;;;;;;;;8.82;77.68;95533.81;4975954;28;1008;-49
2022/05/11 02:49:47;;;;;;;;;;;;;;;8.93;77.12;95536.34;4976704;28;1045;-49
2022/05/11 02:52:14;;;;;;;;;;;;;;;8.83;77.42;95535.50;4976451;28;1091;-48
2022/05/11 02:54:40;;;;;;;;;;;;;;;8.75;78.02;95549.56;4976238;28;1021;-49
2022/05/11 02:57:07;;;;;;;;;;;;;;;8.69;78.47;95547.41;4976386;28;1049;-49
2022/05/11 02:59:33;;;;;;;;;;;;;;;8.74;78.22;95546.03;4976120;28;1009;-50
2022/05/11 03:01:59;;;;;;;;;;;;;;;8.83;77.95;95546.19;4976161;28;1981;-50
2022/05/11 03:04:25;;;;;;;;;;;;;;;8.84;78.03;95543.38;4976352;28;1048;-49
2022/05/11 03:06:51;;;;;;;;;;;;;;;8.98;77.85;95550.94;4976278;28;1073;-49
2022/05/11 03:09:18;;;;;;;;;;;;;;;9.21;77.77;95547.13;4976129;28;1038;-50
2022/05/11 03:11:44;;;;;;;;;;;;;;;9.18;76.25;95551.78;4975720;28;1239;-49
2022/05/11 03:14:11;;;;;;;;;;;;;;;9.07;76.40;95545.72;4975980;28;1101;-49
2022/05/11 03:16:37;;;;;;;;;;;;;;;9.01;76.38;95551.63;4975935;28;1024;-50
2022/05/11 03:19:04;;;;;;;;;;;;;;;8.82;75.78;95550.69;4975964;28;1022;-49
2022/05/11 03:21:30;;;;;;;;;;;;;;;8.63;76.16;95554.16;4975689;28;2001;-49
2022/05/11 03:23:56;;;;;;;;;;;;;;;8.57;77.34;95562.72;4975819;28;1016;-49
2022/05/11 03:26:22;;;;;;;;;;;;;;;8.78;77.06;95562.59;4975455;28;1155;-49
2022/05/11 03:28:48;;;;;;;;;;;;;;;9.03;75.80;95558.53;4975721;28;1871;-49
2022/05/11 03:31:15;;;;;;;;;;;;;;;9.08;75.30;95566.94;4975414;28;1956;-49
2022/05/11 03:36:25;;;;;;;;;;;;;;;8.92;76.80;95572.00;4975138;28;1100;-50
2022/05/11 03:38:51;;;;;;;;;;;;;;;8.71;76.77;95572.97;4975649;28;989;-49
2022/05/11 03:41:18;;;;;;;;;;;;;;;8.75;77.54;95585.03;4975345;28;1911;-49
2022/05/11 03:43:44;;;;;;;;;;;;;;;8.96;77.17;95576.06;4975477;28;1067;-50
2022/05/11 03:46:10;;;;;;;;;;;;;;;9.04;77.13;95578.88;4975532;28;986;-50
2022/05/11 03:48:39;;;;;;;;;;;;;;;8.82;76.61;95589.81;4974973;28;1100;-49
2022/05/11 03:51:06;;;;;;;;;;;;;;;8.65;76.80;95594.00;4975583;28;1034;-49
2022/05/11 03:53:32;;;;;;;;;;;;;;;8.75;77.65;95584.22;4975187;28;1031;-49
2022/05/11 03:55:58;;;;;;;;;;;;;;;8.95;77.75;95598.38;4975039;28;1077;-49
2022/05/11 03:58:24;;;;;;;;;;;;;;;8.81;77.90;95590.81;4974800;28;1132;-49
2022/05/11 04:00:51;;;;;;;;;;;;;;;8.97;78.28;95599.06;4975316;28;1910;-49
2022/05/11 04:03:17;;;;;;;;;;;;;;;9.17;77.56;95599.94;4975061;28;1054;-49
2022/05/11 04:05:43;;;;;;;;;;;;;;;9.32;76.83;95597.66;4975191;28;962;-49
2022/05/11 04:08:09;;;;;;;;;;;;;;;9.35;76.75;95605.38;4974839;28;1004;-49
2022/05/11 04:10:35;;;;;;;;;;;;;;;9.28;77.02;95614.97;4975035;28;1037;-48
2022/05/11 04:13:02;;;;;;;;;;;;;;;9.23;77.15;95615.38;4974732;28;958;-47
2022/05/11 04:15:28;;;;;;;;;;;;;;;9.37;76.99;95622.09;4974747;28;1024;-48
2022/05/11 04:17:55;;;;;;;;;;;;;;;9.47;76.57;95625.59;4974639;28;1028;-48
2022/05/11 04:20:22;;;;;;;;;;;;;;;9.82;76.33;95624.09;4974724;28;1248;-48
2022/05/11 04:22:48;;;;;;;;;;;;;;;10.07;75.19;95627.13;4974529;28;1903;-48
2022/05/11 04:25:15;;;;;;;;;;;;;;;10.22;74.96;95630.16;4974678;28;1092;-48
2022/05/11 04:27:48;;;;;;;;;;;;;;;10.25;75.32;95632.56;4974214;28;1167;-48
2022/05/11 04:30:15;;;;;;;;;;;;;;;10.17;75.95;95630.63;4974957;28;1173;-48
2022/05/11 04:32:41;;;;;;;;;;;;;;;10.21;76.38;95636.53;4974327;28;1029;-48
2022/05/11 04:35:08;;;;;;;;;;;;;;;10.33;75.75;95638.03;4974888;28;1042;-48
2022/05/11 04:37:34;;;;;;;;;;;;;;;10.66;74.89;95649.97;4974106;28;1068;-48
2022/05/11 04:40:00;;;;;;;;;;;;;;;11.12;73.92;95637.41;4974568;28;1087;-48
2022/05/11 04:42:26;;;;;;;;;;;;;;;11.51;73.73;95634.41;4974396;28;1911;-48
2022/05/11 04:44:53;;;;;;;;;;;;;;;11.76;73.19;95642.66;4974449;28;1013;-48
2022/05/11 04:47:19;;;;;;;;;;;;;;;11.88;72.85;95638.69;4974235;28;1053;-48
2022/05/11 04:49:45;;;;;;;;;;;;;;;12.08;72.96;95641.19;4974518;28;1046;-48
2022/05/11 04:52:16;;;;;;;;;;;;;;;12.82;71.03;95641.53;4974515;28;959;-48
2022/05/11 04:54:43;;;;;;;;;;;;;;;13.75;67.55;95648.56;4974384;28;1026;-48
2022/05/11 04:57:10;;;;;;;;;;;;;;;14.31;64.77;95648.69;4974672;28;981;-49
2022/05/11 04:59:38;;;;;;;;;;;;;;;14.61;64.61;95653.31;4974460;28;1230;-49
2022/05/11 05:02:04;;;;;;;;;;;;;;;15.17;62.59;95649.69;4974093;28;1997;-50
2022/05/11 05:04:31;;;;;;;;;;;;;;;16.15;59.46;95654.34;4974465;28;985;-48
2022/05/11 05:06:57;;;;;;;;;;;;;;;16.27;58.06;95662.00;4975375;28;1031;-49
2022/05/11 05:09:24;;;;;;;;;;;;;;;16.44;57.01;95660.78;4978299;28;974;-49
2022/05/11 05:11:50;;;;;;;;;;;;;;;16.66;56.71;95663.63;4978377;28;984;-49
2022/05/11 05:14:17;;;;;;;;;;;;;;;17.35;55.91;95666.78;4977945;28;1169;-49
2022/05/11 05:16:43;;;;;;;;;;;;;;;17.80;53.60;95663.94;4978450;28;970;-49
2022/05/11 05:19:09;;;;;;;;;;;;;;;17.95;52.56;95670.13;4977966;28;1252;-49
2022/05/11 05:21:35;;;;;;;;;;;;;;;18.50;51.84;95673.06;4977857;28;1912;-49
2022/05/11 05:24:02;;;;;;;;;;;;;;;18.46;52.11;95665.53;4977823;28;2034;-49
2022/05/11 05:26:28;;;;;;;;;;;;;;;19.16;50.77;95673.66;4977967;28;1185;-49
2022/05/11 05:31:39;;;;;;;;;;;;;;;19.61;48.59;95685.69;4977930;28;1139;-49
2022/05/11 05:34:05;;;;;;;;;;;;;;;19.55;48.59;95683.00;4977675;28;1025;-49
2022/05/11 05:36:33;;;;;;;;;;;;;;;19.76;49.28;95684.75;4977708;28;1257;-49
2022/05/11 05:38:59;;;;;;;;;;;;;;;19.83;47.91;95683.72;4977914;28;970;-49
2022/05/11 05:41:26;;;;;;;;;;;;;;;20.52;47.27;95681.66;4977677;28;1993;-49
2022/05/11 05:43:52;;;;;;;;;;;;;;;20.78;46.60;95686.25;4977625;28;1016;-49
2022/05/11 05:46:19;;;;;;;;;;;;;;;20.79;47.10;95679.78;4977527;28;1080;-49
2022/05/11 05:48:45;;;;;;;;;;;;;;;21.06;46.31;95687.88;4977318;28;1049;-49
2022/05/11 05:51:12;;;;;;;;;;;;;;;20.44;47.96;95677.25;4977481;28;969;-49
2022/05/11 05:53:41;;;;;;;;;;;;;;;19.65;49.90;95681.56;4977464;28;1023;-49
2022/05/11 05:56:08;;;;;;;;;;;;;;;18.67;52.46;95680.88;4977642;28;1028;-49
2022/05/11 05:58:35;;;;;;;;;;;;;;;18.04;55.11;95681.66;4977319;28;1041;-49
2022/05/11 06:01:01;;;;;;;;;;;;;;;17.55;57.64;95668.88;4977400;28;1911;-49
2022/05/11 06:03:28;;;;;;;;;;;;;;;17.31;56.97;95670.06;4977336;28;1073;-49
2022/05/11 06:05:54;;;;;;;;;;;;;;;17.18;59.22;95681.56;4977495;28;997;-49
2022/05/11 06:08:21;;;;;;;;;;;;;;;17.25;58.68;95670.84;4977303;28;1043;-49
2022/05/11 06:10:48;;;;;;;;;;;;;;;17.46;58.14;95675.44;4977308;28;1019;-50
2022/05/11 06:13:15;;;;;;;;;;;;;;;17.52;58.44;95669.25;4977124;28;1037;-50
2022/05/11 06:15:42;;;;;;;;;;;;;;;17.54;57.93;95670.72;4977396;28;957;-49
2022/05/11 06:18:09;;;;;;;;;;;;;;;17.63;57.01;95681.44;4976769;28;1054;-49
2022/05/11 06:20:35;;;;;;;;;;;;;;;17.78;58.05;95687.63;4976965;28;973;-50
2022/05/11 06:23:03;;;;;;;;;;;;;;;18.10;57.73;95682.75;4977118;28;1918;-49
2022/05/11 06:25:30;;;;;;;;;;;;;;;18.16;58.09;95692.78;4976733;28;1155;-49
2022/05/11 06:27:58;;;;;;;;;;;;;;;18.28;57.63;95696.63;4976845;28;1021;-49
2022/05/11 06:30:25;;;;;;;;;;;;;;;18.37;56.26;95693.78;4976672;28;922;-54
2022/05/11 06:32:51;;;;;;;;;;;;;;;18.41;55.83;95698.59;4977013;28;1029;-49
2022/05/11 06:35:17;;;;;;;;;;;;;;;18.46;55.82;95696.16;4976419;28;988;-49
2022/05/11 06:37:44;;;;;;;;;;;;;;;18.62;55.52;95696.88;4976630;28;1219;-49
2022/05/11 06:40:11;;;;;;;;;;;;;;;18.81;55.75;95687.25;4976632;28;1045;-49
2022/05/11 06:42:37;;;;;;;;;;;;;;;19.05;53.95;95691.34;4976733;28;1910;-49
2022/05/11 06:45:05;;;;;;;;;;;;;;;19.01;53.63;95688.19;4976894;28;967;-49
2022/05/11 06:47:32;;;;;;;;;;;;;;;19.10;55.24;95684.28;4976525;28;1001;-49
2022/05/11 06:49:58;;;;;;;;;;;;;;;19.47;54.96;95684.84;4976240;28;1025;-49
2022/05/11 06:52:24;;;;;;;;;;;;;;;19.76;53.75;95688.28;4976329;28;1038;-49
2022/05/11 07:00:22;;;;;;;;;;;;;;;19.89;53.26;95692.91;4975984;28;1009;-49
2022/05/11 07:02:48;;;;;;;;;;;;;;;20.11;53.05;95685.44;4976182;28;1907;-48
2022/05/11 07:05:15;;;;;;;;;;;;;;;20.17;52.66;95686.47;4976000;28;1021;-49
2022/05/11 07:07:41;;;;;;;;;;;;;;;20.18;51.86;95685.41;4976066;28;1067;-49
2022/05/11 07:10:07;;;;;;;;;;;;;;;20.19;51.37;95681.66;4976135;28;1008;-49
2022/05/11 07:12:35;;;;;;;;;;;;;;;20.31;50.05;95688.13;4976074;28;918;-49
2022/05/11 07:15:05;;;;;;;;;;;;;;;20.32;53.11;95695.25;4975726;28;963;-49
2022/05/11 07:17:33;;;;;;;;;;;;;;;20.51;50.82;95679.13;4975676;28;1032;-49
2022/05/11 07:20:01;;;;;;;;;;;;;;;20.63;50.64;95691.91;4976055;28;973;-49
2022/05/11 07:22:27;;;;;;;;;;;;;;;20.98;51.16;95686.22;4975975;28;1987;-49
2022/05/11 07:24:53;;;;;;;;;;;;;;;20.83;49.01;95691.03;4975571;28;1017;-49
2022/05/11 07:27:21;;;;;;;;;;;;;;;20.78;50.01;95693.56;4975590;28;1159;-49
2022/05/11 07:29:48;;;;;;;;;;;;;;;20.83;49.14;95689.16;4975234;28;1024;-49
2022/05/11 07:32:14;;;;;;;;;;;;;;;20.98;50.52;95686.22;4975949;28;1143;-49
2022/05/11 07:34:40;;;;;;;;;;;;;;;21.11;49.05;95679.06;4975651;28;977;-49
2022/05/11 07:37:07;;;;;;;;;;;;;;;21.00;48.41;95680.53;4975583;28;1112;-48
2022/05/11 07:39:33;;;;;;;;;;;;;;;21.23;50.35;95677.34;4975392;28;1065;-48
2022/05/11 07:41:59;;;;;;;;;;;;;;;21.34;48.79;95673.97;4975612;28;1911;-48
2022/05/11 07:44:26;;;;;;;;;;;;;;;21.42;48.08;95670.16;4975640;28;1023;-48
2022/05/11 07:46:52;;;;;;;;;;;;;;;21.57;47.26;95659.84;4975558;28;1043;-48
2022/05/11 07:49:19;;;;;;;;;;;;;;;21.54;47.98;95665.72;4975401;28;1123;-48
2022/05/11 07:51:46;;;;;;;;;;;;;;;21.67;48.11;95666.72;4975303;28;963;-48
2022/05/11 07:54:13;;;;;;;;;;;;;;;21.76;46.29;95657.22;4975175;28;1025;-49
2022/05/11 08:02:08;;;;;;;;;;;;;;;22.59;46.18;95650.75;4975164;28;1914;-48
2022/05/11 08:04:35;;;;;;;;;;;;;;;22.76;46.89;95651.81;4973829;28;1073;-48
2022/05/11 08:07:01;;;;;;;;;;;;;;;22.60;44.61;95653.25;4975170;28;978;-48
2022/05/11 08:09:27;;;;;;;;;;;;;;;22.90;43.52;95643.53;4974838;28;1013;-48
2022/05/11 08:11:55;;;;;;;;;;;;;;;23.13;43.95;95645.59;4974785;28;1859;-48
2022/05/11 08:14:21;;;;;;;;;;;;;;;23.38;42.90;95640.03;4974825;28;1030;-48
2022/05/11 08:16:52;;;;;;;;;;;;;;;23.65;43.05;95636.97;4975010;28;1017;-48
2022/05/11 08:19:22;;;;;;;;;;;;;;;23.49;43.50;95635.72;4974638;28;1045;-48
2022/05/11 08:21:49;;;;;;;;;;;;;;;23.60;43.70;95634.94;4974546;28;1934;-48
2022/05/11 08:24:15;;;;;;;;;;;;;;;23.63;42.76;95634.44;4975121;28;1045;-48
2022/05/11 08:26:42;;;;;;;;;;;;;;;23.67;41.29;95630.19;4974651;28;1218;-48
2022/05/11 08:29:08;;;;;;;;;;;;;;;23.74;41.87;95635.56;4974993;28;970;-48
2022/05/11 08:34:19;;;;;;;;;;;;;;;24.13;42.25;95628.72;4974511;28;954;-48
2022/05/11 08:36:45;;;;;;;;;;;;;;;24.32;40.28;95631.31;4974441;28;1084;-48
2022/05/11 08:39:12;;;;;;;;;;;;;;;24.16;39.53;95622.75;4974450;28;1014;-48
2022/05/11 08:41:44;;;;;;;;;;;;;;;24.27;41.22;95625.75;4973618;28;1995;-47
2022/05/11 08:44:15;;;;;;;;;;;;;;;24.40;40.89;95625.53;4974501;28;1839;-48
2022/05/11 08:46:43;;;;;;;;;;;;;;;24.49;39.56;95618.66;4974353;28;1061;-48
2022/05/11 08:49:34;;;;;;;;;;;;;;;24.74;40.60;95623.91;4974254;28;1081;-48
2022/05/11 08:52:01;;;;;;;;;;;;;;;24.86;38.47;95623.88;4974346;28;935;-48
2022/05/11 08:54:31;;;;;;;;;;;;;;;24.77;38.73;95621.75;4974258;28;1116;-48
2022/05/11 08:56:57;;;;;;;;;;;;;;;24.67;37.68;95625.09;4974341;28;1120;-48
2022/05/11 08:59:28;;;;;;;;;;;;;;;24.70;37.38;95617.25;4974279;28;1042;-48
2022/05/11 09:01:59;;;;;;;;;;;;;;;24.68;38.50;95618.53;4974226;28;2043;-48
2022/05/11 09:04:32;;;;;;;;;;;;;;;24.71;38.23;95618.06;4974462;28;1045;-48
2022/05/11 09:06:59;;;;;;;;;;;;;;;24.94;39.52;95620.78;4974467;28;970;-49
2022/05/11 09:09:25;;;;;;;;;;;;;;;25.13;37.58;95610.50;4974208;28;961;-49
2022/05/11 09:11:52;;;;;;;;;;;;;;;24.89;37.23;95611.63;4974270;28;1042;-49
2022/05/11 09:14:22;;;;;;;;;;;;;;;24.83;36.79;95605.19;4974465;28;955;-48
2022/05/11 09:16:50;;;;;;;;;;;;;;;24.96;37.01;95604.13;4974082;28;1037;-48
2022/05/11 09:19:17;;;;;;;;;;;;;;;25.14;38.37;95601.22;4974315;28;1068;-48
2022/05/11 09:21:50;;;;;;;;;;;;;;;25.39;38.35;95602.03;4974229;28;1910;-48
2022/05/11 09:24:16;;;;;;;;;;;;;;;25.50;38.73;95593.78;4973936;28;1074;-48
2022/05/11 09:26:47;;;;;;;;;;;;;;;25.34;35.41;95600.00;4973777;28;1155;-48
2022/05/11 09:29:25;;;;;;;;;;;;;;;25.21;36.28;95597.53;4974424;28;1077;-48
2022/05/11 09:31:52;;;;;;;;;;;;;;;24.99;33.69;95597.34;4974177;28;1049;-48
2022/05/11 09:34:28;;;;;;;;;;;;;;;24.85;34.21;95597.63;4974074;28;1031;-48
2022/05/11 09:36:54;;;;;;;;;;;;;;;24.93;34.34;95594.50;4973597;28;1234;-48
2022/05/11 09:39:20;;;;;;;;;;;;;;;24.86;33.69;95595.72;4974129;28;963;-48
2022/05/11 09:41:49;;;;;;;;;;;;;;;24.90;33.17;95596.88;4974022;28;1914;-48
2022/05/11 09:44:17;;;;;;;;;;;;;;;24.85;32.88;95592.16;4973986;28;1118;-48
2022/05/11 09:46:44;;;;;;;;;;;;;;;24.85;34.05;95586.69;4973786;28;997;-49
2022/05/11 09:49:24;;;;;;;;;;;;;;;25.10;34.41;95585.56;4973694;28;1265;-49
2022/05/11 09:51:54;;;;;;;;;;;;;;;24.85;34.80;95591.28;4973823;28;1064;-48
2022/05/11 09:54:23;;;;;;;;;;;;;;;24.43;36.56;95580.50;4977741;28;1011;-48
2022/05/11 09:56:49;;;;;;;;;;;;;;;24.51;36.23;95580.13;4977299;28;1021;-48
2022/05/11 09:59:15;;;;;;;;;;;;;;;24.85;35.61;95583.94;4977520;28;1004;-49
2022/05/11 10:01:41;;;;;;;;;;;;;;;24.26;35.95;95588.56;4977373;28;1914;-48
2022/05/11 10:04:09;;;;;;;;;;;;;;;24.02;36.31;95574.88;4977169;28;1204;-48
2022/05/11 10:06:42;;;;;;;;;;;;;;;23.96;36.59;95573.09;4977447;28;1041;-48
2022/05/11 10:09:09;;;;;;;;;;;;;;;24.38;35.96;95578.47;4976245;28;1078;-48
2022/05/11 10:11:39;;;;;;;;;;;;;;;24.79;34.82;95564.91;4977106;28;1029;-48
2022/05/11 10:22:36;;;;;;;;;;;;;;;25.06;34.13;95568.78;4976676;28;1914;-48
2022/05/11 10:25:02;;;;;;;;;;;;;;;24.66;35.09;95564.13;4976897;28;1100;-48
2022/05/11 10:27:31;;;;;;;;;;;;;;;24.57;35.56;95564.69;4976929;28;1166;-48
2022/05/11 10:30:03;;;;;;;;;;;;;;;24.41;35.06;95560.75;4977077;28;949;-49
2022/05/11 10:32:41;;;;;;;;;;;;;;;24.49;35.77;95560.41;4976858;28;959;-49
2022/05/11 10:35:13;;;;;;;;;;;;;;;24.44;35.43;95554.84;4976833;28;1970;-48
2022/05/11 10:38:02;;;;;;;;;;;;;;;24.21;34.99;95559.22;4976268;28;1982;-48
2022/05/11 10:40:34;;;;;;;;;;;;;;;24.32;35.14;95554.81;4968847;28;1803;-48
2022/05/11 10:43:04;;;;;;;;;;;;;;;24.42;36.17;95552.34;4976437;28;1991;-48
2022/05/11 10:45:41;;;;;;;;;;;;;;;24.36;35.22;95556.84;4976569;28;941;-48
2022/05/11 10:48:11;;;;;;;;;;;;;;;24.24;35.88;95558.75;4976415;28;964;-48
2022/05/11 10:50:58;;;;;;;;;;;;;;;24.25;35.30;95559.59;4976630;28;1006;-48
2022/05/11 10:53:33;;;;;;;;;;;;;;;24.45;35.77;95564.69;4976445;28;1005;-48
2022/05/11 10:56:08;;;;;;;;;;;;;;;24.54;36.00;95555.91;4976425;28;1005;-48
2022/05/11 10:58:46;;;;;;;;;;;;;;;24.65;35.32;95551.50;4976284;28;985;-49
2022/05/11 11:01:13;;;;;;;;;;;;;;;24.72;35.90;95559.59;4976431;28;1907;-49
2022/05/11 11:03:49;;;;;;;;;;;;;;;24.61;35.87;95554.97;4975201;28;985;-49
2022/05/11 11:09:51;;;;;;;;;;;;;;;24.55;36.93;95548.56;4951099;28;1021;-49
2022/05/11 11:12:20;;;;;;;;;;;;;;;24.48;37.46;95545.91;4976304;28;962;-49
2022/05/11 11:14:50;;;;;;;;;;;;;;;24.48;37.66;95553.28;4990728;28;1013;-49
2022/05/11 11:17:21;;;;;;;;;;;;;;;24.35;37.91;95546.97;4976213;28;965;-49
2022/05/11 11:19:51;;;;;;;;;;;;;;;24.38;37.10;95553.03;4975822;28;1867;-49
2022/05/11 11:22:17;;;;;;;;;;;;;;;24.21;37.08;95553.75;4975727;28;2273;-49
2022/05/11 11:25:03;;;;;;;;;;;;;;;24.23;37.97;95553.53;4975855;28;962;-49
2022/05/11 11:27:49;;;;;;;;;;;;;;;24.27;37.44;95558.28;4975581;28;1335;-49
2022/05/11 11:30:19;;;;;;;;;;;;;;;24.29;37.87;95553.41;4975560;28;1876;-49
2022/05/11 11:33:06;;;;;;;;;;;;;;;24.31;37.26;95553.16;4975992;28;950;-49
2022/05/11 11:35:33;;;;;;;;;;;;;;;24.43;37.16;95555.88;4965322;28;1385;-48
2022/05/11 11:38:00;;;;;;;;;;;;;;;24.40;36.74;95557.22;4975371;28;1195;-49
2022/05/11 11:40:27;;;;;;;;;;;;;;;24.54;37.98;95557.81;4975242;28;1013;-49
2022/05/11 11:42:54;;;;;;;;;;;;;;;24.89;37.64;95554.19;4975682;28;1985;-49
2022/05/11 11:45:32;;;;;;;;;;;;;;;25.03;35.92;95552.03;4975502;28;1161;-49
2022/05/11 11:48:15;;;;;;;;;;;;;;;25.05;37.33;95553.44;4975572;28;966;-49
2022/05/11 11:50:44;;;;;;;;;;;;;;;25.18;36.58;95555.06;4975321;28;971;-49
2022/05/11 11:53:12;;;;;;;;;;;;;;;25.30;36.17;95542.19;4975269;28;1006;-48
2022/05/11 11:55:38;;;;;;;;;;;;;;;25.60;35.28;95543.03;4975345;28;1081;-49
2022/05/11 11:58:25;;;;;;;;;;;;;;;25.59;34.49;95552.31;4975536;28;1050;-49
2022/05/11 12:01:01;;;;;;;;;;;;;;;25.42;35.20;95546.78;4975146;28;954;-48
2022/05/11 12:03:30;;;;;;;;;;;;;;;25.35;35.56;95546.13;4975214;28;1982;-48
2022/05/11 12:15:01;;;;;;;;;;;;;;;25.00;34.86;95534.19;4974794;28;1041;-48
2022/05/11 12:17:02;;;;;;;;;;;;;;;24.88;35.43;95527.94;4975191;28;958;-49
2022/05/11 12:19:30;;;;;;;;;;;;;;;24.63;33.17;95526.31;4973282;28;1184;-49
2022/05/11 12:21:56;;;;;;;;;;;;;;;24.25;35.25;95522.16;4974977;28;2057;-49
2022/05/11 12:24:27;;;;;;;;;;;;;;;24.22;35.11;95508.97;4974730;28;1032;-49
2022/05/11 12:26:58;;;;;;;;;;;;;;;24.59;36.08;95511.47;4974840;28;1171;-49
2022/05/11 12:32:10;;;;;;;;;;;;;;;25.23;33.05;95508.69;4974678;28;1077;-49
2022/05/11 12:34:41;;;;;;;;;;;;;;;25.25;34.41;95498.34;4974455;28;1038;-48
2022/05/11 12:37:26;;;;;;;;;;;;;;;25.28;34.71;95497.81;4974534;28;1080;-49
2022/05/11 12:40:01;;;;;;;;;;;;;;;25.20;33.53;95498.19;4974624;28;1078;-49
2022/05/11 12:42:38;;;;;;;;;;;;;;;25.09;33.92;95502.63;4974606;28;1918;-48
2022/05/11 12:45:05;;;;;;;;;;;;;;;25.06;34.06;95499.56;4974294;28;1305;-49
2022/05/11 12:47:31;;;;;;;;;;;;;;;24.95;33.46;95504.00;4974181;28;1139;-49
2022/05/11 12:49:57;;;;;;;;;;;;;;;24.89;33.88;95502.22;4974484;28;971;-49
2022/05/11 12:52:24;;;;;;;;;;;;;;;24.98;35.47;95506.25;4974669;28;955;-49
2022/05/11 12:54:55;;;;;;;;;;;;;;;24.96;35.36;95504.84;4974232;28;1096;-49
2022/05/11 12:57:22;;;;;;;;;;;;;;;24.81;35.30;95492.50;4974276;28;1016;-49
2022/05/11 12:59:52;;;;;;;;;;;;;;;24.65;35.81;95496.84;4974514;28;1212;-49
2022/05/11 13:02:25;;;;;;;;;;;;;;;24.61;36.11;95498.41;4974491;28;1918;-49
2022/05/11 13:04:55;;;;;;;;;;;;;;;24.48;36.49;95493.16;4974360;28;1030;-49
2022/05/11 13:07:27;;;;;;;;;;;;;;;24.42;37.41;95488.66;4974531;28;1217;-49
2022/05/11 13:09:56;;;;;;;;;;;;;;;24.33;37.11;95488.19;4974150;28;973;-49
2022/05/11 13:12:22;;;;;;;;;;;;;;;24.27;37.11;95484.50;4974347;28;1021;-49
2022/05/11 13:14:52;;;;;;;;;;;;;;;24.26;36.98;95477.38;4974394;28;1012;-48
2022/05/11 13:17:21;;;;;;;;;;;;;;;24.23;37.71;95475.13;4974118;28;979;-49
2022/05/11 13:19:55;;;;;;;;;;;;;;;24.25;37.32;95473.00;4974382;28;1039;-49
2022/05/11 13:22:22;;;;;;;;;;;;;;;24.32;37.23;95470.97;4974028;28;1914;-49
2022/05/11 13:24:50;;;;;;;;;;;;;;;24.34;37.52;95473.47;4974396;28;996;-48
2022/05/11 13:27:34;;;;;;;;;;;;;;;24.25;36.91;95470.25;4975154;28;1218;-48
2022/05/11 13:30:11;;;;;;;;;;;;;;;24.25;37.08;95472.16;4978207;28;1029;-49
2022/05/11 13:32:39;;;;;;;;;;;;;;;24.25;37.37;95474.91;4978041;28;1037;-49
2022/05/11 13:35:14;;;;;;;;;;;;;;;24.28;37.92;95467.06;4977845;28;990;-49
2022/05/11 13:41:04;;;;;;;;;;;;;;;24.40;36.78;95472.50;3335332;28;2075;-49
2022/05/11 13:43:32;;;;;;;;;;;;;;;24.28;36.63;95483.44;4977699;28;1992;-49
2022/05/11 13:46:01;;;;;;;;;;;;;;;24.16;37.22;95474.41;4977437;28;985;-49
2022/05/11 13:48:29;;;;;;;;;;;;;;;24.07;37.22;95471.19;4977634;28;997;-49
2022/05/11 13:51:05;;;;;;;;;;;;;;;24.00;38.07;95475.13;4977577;28;970;-49
2022/05/11 13:53:33;;;;;;;;;;;;;;;24.09;39.98;95474.56;4977565;28;1053;-49
2022/05/11 13:56:02;;;;;;;;;;;;;;;24.18;39.04;95477.75;4977320;28;1022;-49
2022/05/11 13:58:39;;;;;;;;;;;;;;;24.22;39.04;95484.38;4977309;28;1020;-49
2022/05/11 14:01:10;;;;;;;;;;;;;;;24.33;38.06;95480.81;4977287;28;1966;-49